Time;durP1;ratioP1;P1;durP2;ratioP2;P2;SDS_P1;SDS_P2;PMS_P1;PMS_P2;Temp;Humidity;BMP_temperature;BMP_pressure;BME280_temperature;BME280_humidity;BME280_pressure;Samples;Min_cycle;Max_cycle;Signal;HPM_P1;HPM_P2
2022/04/28 00:02:20;;;;;;;;;20.50;20.50;;;;;;;;2;261073266;261073266;-81
2022/04/28 00:11:21;;;;;;;;;23.00;21.50;;;;;;;;2;261074694;261074694;-80
2022/04/28 00:19:37;;;;;;;;;32.50;17.50;;;;;;;;2;261075226;261075226;-81
2022/04/28 00:28:37;;;;;;;;;36.00;25.00;;;;;;;;2;261073718;261073718;-80
2022/04/28 00:36:53;;;;;;;;;26.50;23.50;;;;;;;;2;261076191;261076191;-80
2022/04/28 00:45:54;;;;;;;;;34.00;17.50;;;;;;;;2;261076031;261076031;-80
2022/04/28 00:54:09;;;;;;;;;26.00;26.00;;;;;;;;2;261078842;261078842;-80
2022/04/28 01:03:10;;;;;;;;;40.00;20.00;;;;;;;;2;261076868;261076868;-80
2022/04/28 01:11:26;;;;;;;;;17.50;17.50;;;;;;;;2;261076772;261076772;-80
2022/04/28 01:20:26;;;;;;;;;21.00;21.00;;;;;;;;2;261077486;261077486;-80
2022/04/28 01:28:42;;;;;;;;;39.00;27.50;;;;;;;;2;261075067;261075067;-80
2022/04/28 01:37:42;;;;;;;;;19.50;19.50;;;;;;;;2;261076037;261076037;-80
2022/04/28 01:45:58;;;;;;;;;21.00;12.50;;;;;;;;2;261075575;261075575;-80
2022/04/28 01:54:59;;;;;;;;;21.50;17.50;;;;;;;;2;261073752;261073752;-80
2022/04/28 02:03:14;;;;;;;;;38.00;26.00;;;;;;;;2;261076166;261076166;-80
2022/04/28 02:12:14;;;;;;;;;26.00;23.00;;;;;;;;2;261074465;261074465;-80
2022/04/28 02:20:31;;;;;;;;;18.50;18.50;;;;;;;;2;261077865;261077865;-80
2022/04/28 02:29:32;;;;;;;;;23.50;18.00;;;;;;;;2;261073117;261073117;-80
2022/04/28 02:37:48;;;;;;;;;37.00;26.00;;;;;;;;2;261073508;261073508;-80
2022/04/28 02:46:48;;;;;;;;;21.00;19.00;;;;;;;;2;261074879;261074879;-80
2022/04/28 02:55:04;;;;;;;;;21.00;21.00;;;;;;;;2;261076788;261076788;-80
2022/04/28 03:04:05;;;;;;;;;18.00;18.00;;;;;;;;2;261073550;261073550;-80
2022/04/28 03:12:20;;;;;;;;;20.50;20.50;;;;;;;;2;261076347;261076347;-80
2022/04/28 03:21:21;;;;;;;;;32.50;19.50;;;;;;;;2;261075373;261075373;-79
2022/04/28 03:29:37;;;;;;;;;16.00;16.00;;;;;;;;2;261074030;261074030;-80
2022/04/28 03:36:50;;;;;;;;;23.00;23.00;;;;;;;;2;261077192;261077192;-80
2022/04/28 03:46:26;;;;;;;;;27.50;18.50;;;;;;;;1515587;22;279077551;-80
2022/04/28 03:54:41;;;;;;;;;29.50;21.00;;;;;;;;2;234068187;234068187;-80
2022/04/28 04:03:41;;;;;;;;;20.00;18.00;;;;;;;;2;279079281;279079281;-80
2022/04/28 04:11:57;;;;;;;;;42.00;23.50;;;;;;;;2;234067051;234067051;-80
2022/04/28 04:20:57;;;;;;;;;20.00;20.00;;;;;;;;2;279079458;279079458;-80
2022/04/28 04:29:13;;;;;;;;;27.50;15.50;;;;;;;;2;234065599;234065599;-80
2022/04/28 04:38:13;;;;;;;;;38.50;22.50;;;;;;;;2;279082576;279082576;-80
2022/04/28 04:46:28;;;;;;;;;32.00;24.00;;;;;;;;2;234069391;234069391;-80
2022/04/28 04:55:29;;;;;;;;;41.50;28.50;;;;;;;;2;279080752;279080752;-80
2022/04/28 05:03:44;;;;;;;;;24.00;24.00;;;;;;;;2;234068978;234068978;-80
2022/04/28 05:12:45;;;;;;;;;32.00;29.50;;;;;;;;2;279078361;279078361;-80
2022/04/28 05:21:01;;;;;;;;;20.50;20.50;;;;;;;;2;234065847;234065847;-80
2022/04/28 05:30:01;;;;;;;;;26.00;26.00;;;;;;;;2;279081473;279081473;-80
2022/04/28 05:38:17;;;;;;;;;32.00;27.00;;;;;;;;2;234067796;234067796;-80
2022/04/28 05:47:17;;;;;;;;;21.50;21.50;;;;;;;;2;279078565;279078565;-80
2022/04/28 05:55:33;;;;;;;;;29.50;20.50;;;;;;;;2;234067379;234067379;-79
2022/04/28 06:04:33;;;;;;;;;27.00;24.50;;;;;;;;2;279081274;279081274;-79
2022/04/28 06:12:48;;;;;;;;;26.50;22.50;;;;;;;;2;234069716;234069716;-79
2022/04/28 06:21:49;;;;;;;;;36.50;32.50;;;;;;;;2;279078319;279078319;-79
2022/04/28 06:30:05;;;;;;;;;34.50;31.00;;;;;;;;2;234068567;234068567;-79
2022/04/28 06:39:06;;;;;;;;;34.00;24.50;;;;;;;;2;279083433;279083433;-79
2022/04/28 06:47:21;;;;;;;;;47.00;20.00;;;;;;;;2;234069649;234069649;-79
2022/04/28 06:56:21;;;;;;;;;27.50;27.50;;;;;;;;2;279080164;279080164;-79
2022/04/28 07:04:37;;;;;;;;;35.50;30.00;;;;;;;;2;234068432;234068432;-79
2022/04/28 07:13:37;;;;;;;;;29.00;28.50;;;;;;;;2;279082718;279082718;-79
2022/04/28 07:21:53;;;;;;;;;18.00;18.00;;;;;;;;2;234067293;234067293;-79
2022/04/28 07:30:53;;;;;;;;;49.00;21.00;;;;;;;;2;279079995;279079995;-80
2022/04/28 07:39:08;;;;;;;;;47.50;29.50;;;;;;;;2;234070235;234070235;-80
2022/04/28 07:48:09;;;;;;;;;24.00;24.00;;;;;;;;2;279080426;279080426;-81
2022/04/28 07:56:24;;;;;;;;;27.00;26.50;;;;;;;;2;234067802;234067802;-82
2022/04/28 08:05:28;;;;;;;;;40.00;30.50;;;;;;;;2;279083177;279083177;-82
2022/04/28 08:13:53;;;;;;;;;32.00;31.00;;;;;;;;2;234068449;234068449;-83
2022/04/28 08:23:14;;;;;;;;;22.50;22.50;;;;;;;;2;279084111;279084111;-83
2022/04/28 08:50:58;;;;;;;;;;;;;;;;;;;;;
2022/04/28 08:59:58;;;;;;;;;;;;;;;;;;;;;
2022/04/28 09:18:14;;;;;;;;;27.00;22.50;;;;;;;;2;279079561;279079561;-83
2022/04/28 09:36:29;;;;;;;;;35.00;19.00;;;;;;;;2;279084213;279084213;-83
2022/04/28 09:44:48;;;;;;;;;19.50;19.50;;;;;;;;2;234073832;234073832;-83
2022/04/28 10:12:16;;;;;;;;;16.50;16.50;;;;;;;;2;279080453;279080453;-84
2022/04/28 10:20:45;;;;;;;;;;;;;;;;;;;;;
2022/04/28 10:38:38;;;;;;;;;8.00;8.00;;;;;;;;2;234068391;234068391;-84
2022/04/28 10:47:42;;;;;;;;;16.00;16.00;;;;;;;;2;279080478;279080478;-83
2022/04/28 10:56:08;;;;;;;;;8.00;8.00;;;;;;;;2;234070004;234070004;-83
2022/04/28 11:05:42;;;;;;;;;18.50;10.00;;;;;;;;2;279081629;279081629;-83
2022/04/28 11:14:06;;;;;;;;;15.50;15.50;;;;;;;;2;234070430;234070430;-82
2022/04/28 11:23:09;;;;;;;;;7.00;7.00;;;;;;;;2;279079745;279079745;-83
2022/04/28 11:31:25;;;;;;;;;11.00;9.00;;;;;;;;2;234067861;234067861;-83
2022/04/28 11:40:25;;;;;;;;;13.50;13.50;;;;;;;;2;279078377;279078377;-83
2022/04/28 11:48:44;;;;;;;;;6.00;6.00;;;;;;;;2;234065982;234065982;-83
2022/04/28 11:57:47;;;;;;;;;9.50;9.50;;;;;;;;2;279079904;279079904;-83
2022/04/28 12:06:04;;;;;;;;;7.50;7.50;;;;;;;;2;234070242;234070242;-83
2022/04/28 12:15:06;;;;;;;;;11.00;5.50;;;;;;;;2;279079521;279079521;-82
2022/04/28 12:23:31;;;;;;;;;5.50;5.50;;;;;;;;2;234067103;234067103;-82
2022/04/28 12:32:40;;;;;;;;;5.50;5.50;;;;;;;;2;279080611;279080611;-82
2022/04/28 12:40:56;;;;;;;;;14.00;10.00;;;;;;;;2;234069780;234069780;-83
2022/04/28 12:49:56;;;;;;;;;8.50;8.50;;;;;;;;2;279081013;279081013;-82
2022/04/28 12:58:13;;;;;;;;;7.00;7.00;;;;;;;;2;234068265;234068265;-82
2022/04/28 13:07:14;;;;;;;;;4.50;4.50;;;;;;;;2;279081734;279081734;-83
2022/04/28 13:15:29;;;;;;;;;7.00;7.00;;;;;;;;2;234066344;234066344;-82
2022/04/28 13:24:30;;;;;;;;;5.50;5.50;;;;;;;;2;279077765;279077765;-82
2022/04/28 13:32:45;;;;;;;;;6.00;6.00;;;;;;;;2;234065683;234065683;-82
2022/04/28 13:41:46;;;;;;;;;5.00;5.00;;;;;;;;2;279080678;279080678;-82
2022/04/28 13:50:02;;;;;;;;;4.50;4.50;;;;;;;;2;234065601;234065601;-82
2022/04/28 13:59:02;;;;;;;;;6.50;6.50;;;;;;;;2;279080499;279080499;-82
2022/04/28 14:07:18;;;;;;;;;11.50;11.50;;;;;;;;2;234072096;234072096;-82
2022/04/28 14:16:18;;;;;;;;;4.50;4.50;;;;;;;;2;279081625;279081625;-82
2022/04/28 14:24:34;;;;;;;;;7.50;7.50;;;;;;;;2;234067999;234067999;-83
2022/04/28 14:33:34;;;;;;;;;3.50;3.50;;;;;;;;2;279078467;279078467;-82
2022/04/28 14:41:50;;;;;;;;;6.00;6.00;;;;;;;;2;234069085;234069085;-83
2022/04/28 14:59:24;;;;;;;;;10.50;6.50;;;;;;;;2;234067989;234067989;-82
2022/04/28 15:08:25;;;;;;;;;6.50;6.50;;;;;;;;2;279080187;279080187;-82
2022/04/28 15:16:41;;;;;;;;;6.50;6.50;;;;;;;;2;234069289;234069289;-82
2022/04/28 15:25:42;;;;;;;;;6.00;6.00;;;;;;;;2;279079713;279079713;-82
2022/04/28 15:33:57;;;;;;;;;7.00;7.00;;;;;;;;2;234068061;234068061;-83
2022/04/28 15:42:58;;;;;;;;;3.50;3.50;;;;;;;;2;279082730;279082730;-82
2022/04/28 15:51:13;;;;;;;;;6.00;6.00;;;;;;;;2;234069746;234069746;-82
2022/04/28 16:00:17;;;;;;;;;3.00;3.00;;;;;;;;2;279080630;279080630;-82
2022/04/28 16:08:32;;;;;;;;;7.00;7.00;;;;;;;;2;234068739;234068739;-82
2022/04/28 16:17:33;;;;;;;;;5.50;5.50;;;;;;;;2;279079021;279079021;-82
2022/04/28 16:25:48;;;;;;;;;22.50;10.50;;;;;;;;2;234067283;234067283;-82
2022/04/28 16:34:49;;;;;;;;;6.50;6.50;;;;;;;;2;279079685;279079685;-82
2022/04/28 16:43:05;;;;;;;;;8.00;8.00;;;;;;;;2;234067510;234067510;-82
2022/04/28 16:52:07;;;;;;;;;9.00;9.00;;;;;;;;2;279079252;279079252;-82
2022/04/28 17:00:23;;;;;;;;;9.00;9.00;;;;;;;;2;234068362;234068362;-82
2022/04/28 17:09:24;;;;;;;;;5.50;5.50;;;;;;;;2;279080317;279080317;-82
2022/04/28 17:17:39;;;;;;;;;7.50;5.00;;;;;;;;2;234067308;234067308;-82
2022/04/28 17:26:40;;;;;;;;;6.00;6.00;;;;;;;;2;279080381;279080381;-82
2022/04/28 17:34:56;;;;;;;;;13.00;13.00;;;;;;;;2;234063437;234063437;-82
2022/04/28 17:43:56;;;;;;;;;6.50;6.50;;;;;;;;2;279082216;279082216;-82
2022/04/28 17:52:12;;;;;;;;;6.00;6.00;;;;;;;;2;234068032;234068032;-82
2022/04/28 18:01:14;;;;;;;;;6.50;6.50;;;;;;;;2;279080084;279080084;-82
2022/04/28 18:09:30;;;;;;;;;6.50;6.50;;;;;;;;2;234068645;234068645;-82
2022/04/28 18:18:30;;;;;;;;;9.00;9.00;;;;;;;;2;279080090;279080090;-82
2022/04/28 18:26:46;;;;;;;;;14.50;5.50;;;;;;;;2;234070341;234070341;-82
2022/04/28 18:44:26;;;;;;;;;32.50;9.00;;;;;;;;2;234065878;234065878;-82
2022/04/28 18:53:27;;;;;;;;;8.00;8.00;;;;;;;;2;279081472;279081472;-82
2022/04/28 19:01:45;;;;;;;;;10.50;10.50;;;;;;;;2;234069243;234069243;-81
2022/04/28 19:10:46;;;;;;;;;10.00;10.00;;;;;;;;2;279078624;279078624;-81
2022/04/28 19:19:01;;;;;;;;;30.50;19.50;;;;;;;;2;234067451;234067451;-81
2022/04/28 19:28:02;;;;;;;;;15.50;12.50;;;;;;;;2;279078899;279078899;-81
2022/04/28 19:36:18;;;;;;;;;19.50;14.00;;;;;;;;2;234066265;234066265;-82
2022/04/28 19:45:19;;;;;;;;;17.50;17.50;;;;;;;;2;279074165;279074165;-81
2022/04/28 19:53:36;;;;;;;;;17.50;13.50;;;;;;;;2;234065836;234065836;-81
2022/04/28 20:02:36;;;;;;;;;11.00;11.00;;;;;;;;2;279080731;279080731;-81
2022/04/28 20:10:52;;;;;;;;;14.00;14.00;;;;;;;;2;234068043;234068043;-81
2022/04/28 20:19:53;;;;;;;;;12.00;12.00;;;;;;;;2;279080159;279080159;-81
2022/04/28 20:31:28;;;;;;;;;11.50;11.50;;;;;;;;2;234068002;234068002;-82
2022/04/28 20:40:29;;;;;;;;;13.50;13.50;;;;;;;;2;279078316;279078316;-81
2022/04/28 20:48:45;;;;;;;;;26.50;18.50;;;;;;;;2;234065822;234065822;-81
2022/04/28 20:57:46;;;;;;;;;10.50;10.50;;;;;;;;2;279081790;279081790;-81
2022/04/28 21:06:02;;;;;;;;;17.50;17.50;;;;;;;;2;234065786;234065786;-81
2022/04/28 21:15:02;;;;;;;;;13.50;13.50;;;;;;;;2;279083346;279083346;-81
2022/04/28 21:23:18;;;;;;;;;14.50;14.50;;;;;;;;2;234067406;234067406;-81
2022/04/28 21:32:19;;;;;;;;;10.00;10.00;;;;;;;;2;279081187;279081187;-81
2022/04/28 21:40:35;;;;;;;;;24.00;24.00;;;;;;;;2;234069655;234069655;-81
2022/04/28 21:49:36;;;;;;;;;20.50;20.50;;;;;;;;2;279080652;279080652;-81
2022/04/28 21:57:53;;;;;;;;;26.50;15.00;;;;;;;;2;234067367;234067367;-81
2022/04/28 22:15:27;;;;;;;;;23.50;12.50;;;;;;;;2;234069748;234069748;-81
2022/04/28 22:24:28;;;;;;;;;30.50;18.50;;;;;;;;2;279080627;279080627;-81
2022/04/28 22:32:44;;;;;;;;;22.50;18.50;;;;;;;;2;234069141;234069141;-81
2022/04/28 22:41:45;;;;;;;;;25.00;18.50;;;;;;;;2;279080549;279080549;-81
2022/04/28 22:50:00;;;;;;;;;16.00;13.00;;;;;;;;2;234068014;234068014;-81
2022/04/28 22:59:01;;;;;;;;;28.00;25.00;;;;;;;;2;279084082;279084082;-81
2022/04/28 23:07:19;;;;;;;;;22.50;22.50;;;;;;;;2;234068411;234068411;-81
2022/04/28 23:16:19;;;;;;;;;17.50;17.50;;;;;;;;2;279080828;279080828;-81
2022/04/28 23:24:36;;;;;;;;;17.50;17.50;;;;;;;;2;234066099;234066099;-81
2022/04/28 23:33:37;;;;;;;;;13.50;13.50;;;;;;;;2;279081454;279081454;-81
2022/04/28 23:51:12;;;;;;;;;19.00;19.00;;;;;;;;2;279077939;279077939;-81
2022/04/28 23:59:27;;;;;;;;;25.50;17.50;;;;;;;;2;234067178;234067178;-81
